sensor_id;sensor_type;location;lat;lon;timestamp;P1;durP1;ratioP1;P2;durP2;ratioP2
60306;SDS011;46155;52.364;6.580;2022-07-17T03:02:38;7.70;;;7.10;;
60306;SDS011;46155;52.364;6.580;2022-07-17T03:05:04;7.37;;;6.97;;
60306;SDS011;46155;52.364;6.580;2022-07-17T03:07:30;7.77;;;7.27;;
60306;SDS011;46155;52.364;6.580;2022-07-17T03:09:55;8.37;;;7.63;;
60306;SDS011;46155;52.364;6.580;2022-07-17T03:12:20;7.43;;;6.70;;
60306;SDS011;46155;52.364;6.580;2022-07-17T03:14:45;8.57;;;8.07;;
60306;SDS011;46155;52.364;6.580;2022-07-17T03:17:11;7.97;;;7.27;;
60306;SDS011;46155;52.364;6.580;2022-07-17T03:19:36;8.43;;;7.93;;
60306;SDS011;46155;52.364;6.580;2022-07-17T03:22:01;8.53;;;7.93;;
60306;SDS011;46155;52.364;6.580;2022-07-17T03:24:27;8.07;;;7.57;;
60306;SDS011;46155;52.364;6.580;2022-07-17T03:26:52;8.03;;;7.27;;
60306;SDS011;46155;52.364;6.580;2022-07-17T03:29:17;7.73;;;7.23;;
60306;SDS011;46155;52.364;6.580;2022-07-17T03:31:43;9.30;;;8.00;;
60306;SDS011;46155;52.364;6.580;2022-07-17T03:34:09;8.00;;;7.53;;
60306;SDS011;46155;52.364;6.580;2022-07-17T03:36:35;7.60;;;7.20;;
60306;SDS011;46155;52.364;6.580;2022-07-17T03:39:00;7.50;;;7.00;;
60306;SDS011;46155;52.364;6.580;2022-07-17T03:41:26;7.60;;;7.10;;
60306;SDS011;46155;52.364;6.580;2022-07-17T03:43:51;7.30;;;6.80;;
60306;SDS011;46155;52.364;6.580;2022-07-17T03:46:16;7.73;;;7.13;;
60306;SDS011;46155;52.364;6.580;2022-07-17T03:48:42;6.63;;;6.10;;
60306;SDS011;46155;52.364;6.580;2022-07-17T03:51:07;8.07;;;7.47;;
60306;SDS011;46155;52.364;6.580;2022-07-17T03:53:33;7.13;;;6.47;;
60306;SDS011;46155;52.364;6.580;2022-07-17T03:55:58;7.40;;;6.80;;
60306;SDS011;46155;52.364;6.580;2022-07-17T03:58:23;8.63;;;8.03;;
60306;SDS011;46155;52.364;6.580;2022-07-17T04:00:49;8.40;;;7.80;;
60306;SDS011;46155;52.364;6.580;2022-07-17T04:03:14;8.40;;;7.80;;
60306;SDS011;46155;52.364;6.580;2022-07-17T04:05:39;8.47;;;7.03;;
60306;SDS011;46155;52.364;6.580;2022-07-17T04:08:04;7.23;;;6.73;;
60306;SDS011;46155;52.364;6.580;2022-07-17T04:10:30;6.80;;;6.40;;
60306;SDS011;46155;52.364;6.580;2022-07-17T04:12:55;7.07;;;6.57;;
60306;SDS011;46155;52.364;6.580;2022-07-17T04:15:20;6.40;;;5.90;;
60306;SDS011;46155;52.364;6.580;2022-07-17T04:18:04;6.53;;;6.13;;
60306;SDS011;46155;52.364;6.580;2022-07-17T04:20:30;7.53;;;6.40;;
60306;SDS011;46155;52.364;6.580;2022-07-17T04:22:55;7.30;;;6.77;;
60306;SDS011;46155;52.364;6.580;2022-07-17T04:25:20;7.40;;;6.83;;
60306;SDS011;46155;52.364;6.580;2022-07-17T04:27:45;7.57;;;7.10;;
60306;SDS011;46155;52.364;6.580;2022-07-17T04:30:11;8.70;;;7.83;;
60306;SDS011;46155;52.364;6.580;2022-07-17T04:32:36;7.70;;;6.70;;
60306;SDS011;46155;52.364;6.580;2022-07-17T04:35:01;11.63;;;7.67;;
60306;SDS011;46155;52.364;6.580;2022-07-17T04:37:27;7.80;;;7.30;;
60306;SDS011;46155;52.364;6.580;2022-07-17T04:39:52;8.13;;;7.57;;
60306;SDS011;46155;52.364;6.580;2022-07-17T04:42:18;9.07;;;8.47;;
60306;SDS011;46155;52.364;6.580;2022-07-17T04:44:43;9.60;;;8.80;;
60306;SDS011;46155;52.364;6.580;2022-07-17T04:47:08;9.10;;;8.20;;
60306;SDS011;46155;52.364;6.580;2022-07-17T04:49:34;8.77;;;8.17;;
60306;SDS011;46155;52.364;6.580;2022-07-17T04:51:59;8.47;;;7.87;;
60306;SDS011;46155;52.364;6.580;2022-07-17T04:54:24;8.53;;;7.83;;
60306;SDS011;46155;52.364;6.580;2022-07-17T04:56:50;7.97;;;7.47;;
60306;SDS011;46155;52.364;6.580;2022-07-17T04:59:15;8.73;;;8.03;;
60306;SDS011;46155;52.364;6.580;2022-07-17T05:01:40;9.60;;;8.83;;
60306;SDS011;46155;52.364;6.580;2022-07-17T05:04:05;10.20;;;9.50;;
60306;SDS011;46155;52.364;6.580;2022-07-17T05:06:31;9.33;;;8.60;;
60306;SDS011;46155;52.364;6.580;2022-07-17T05:08:56;9.40;;;8.47;;
60306;SDS011;46155;52.364;6.580;2022-07-17T05:11:21;9.43;;;8.67;;
60306;SDS011;46155;52.364;6.580;2022-07-17T05:13:47;9.80;;;9.00;;
60306;SDS011;46155;52.364;6.580;2022-07-17T05:16:12;10.17;;;9.30;;
60306;SDS011;46155;52.364;6.580;2022-07-17T05:18:38;10.20;;;9.30;;
60306;SDS011;46155;52.364;6.580;2022-07-17T05:21:03;14.03;;;9.37;;
60306;SDS011;46155;52.364;6.580;2022-07-17T05:23:28;9.67;;;8.57;;
60306;SDS011;46155;52.364;6.580;2022-07-17T05:25:54;10.27;;;8.90;;
60306;SDS011;46155;52.364;6.580;2022-07-17T05:28:19;9.03;;;8.47;;
60306;SDS011;46155;52.364;6.580;2022-07-17T05:30:44;11.13;;;9.33;;
60306;SDS011;46155;52.364;6.580;2022-07-17T05:33:10;9.10;;;8.30;;
60306;SDS011;46155;52.364;6.580;2022-07-17T05:35:35;10.33;;;9.30;;
60306;SDS011;46155;52.364;6.580;2022-07-17T05:38:00;10.53;;;9.50;;
60306;SDS011;46155;52.364;6.580;2022-07-17T05:40:26;9.57;;;8.83;;
60306;SDS011;46155;52.364;6.580;2022-07-17T05:42:51;13.93;;;9.00;;
60306;SDS011;46155;52.364;6.580;2022-07-17T05:45:16;10.90;;;8.30;;
60306;SDS011;46155;52.364;6.580;2022-07-17T05:47:42;9.33;;;8.63;;
60306;SDS011;46155;52.364;6.580;2022-07-17T05:50:07;9.73;;;8.73;;
60306;SDS011;46155;52.364;6.580;2022-07-17T05:52:32;10.33;;;9.23;;
60306;SDS011;46155;52.364;6.580;2022-07-17T05:54:58;10.07;;;9.17;;
60306;SDS011;46155;52.364;6.580;2022-07-17T05:57:23;8.47;;;7.90;;
60306;SDS011;46155;52.364;6.580;2022-07-17T05:59:49;8.83;;;8.23;;
60306;SDS011;46155;52.364;6.580;2022-07-17T06:02:14;8.00;;;7.30;;
60306;SDS011;46155;52.364;6.580;2022-07-17T06:04:39;9.00;;;8.10;;
60306;SDS011;46155;52.364;6.580;2022-07-17T06:07:04;8.17;;;7.53;;
60306;SDS011;46155;52.364;6.580;2022-07-17T06:09:30;7.73;;;7.23;;
60306;SDS011;46155;52.364;6.580;2022-07-17T06:11:55;8.60;;;7.80;;
60306;SDS011;46155;52.364;6.580;2022-07-17T06:14:20;8.10;;;7.50;;
60306;SDS011;46155;52.364;6.580;2022-07-17T06:16:46;7.87;;;7.30;;
60306;SDS011;46155;52.364;6.580;2022-07-17T06:19:11;7.50;;;6.87;;
60306;SDS011;46155;52.364;6.580;2022-07-17T06:21:36;8.80;;;6.90;;
60306;SDS011;46155;52.364;6.580;2022-07-17T06:24:02;7.83;;;7.30;;
60306;SDS011;46155;52.364;6.580;2022-07-17T06:26:27;7.80;;;7.00;;
60306;SDS011;46155;52.364;6.580;2022-07-17T06:28:52;6.87;;;6.27;;
60306;SDS011;46155;52.364;6.580;2022-07-17T06:31:17;9.87;;;7.33;;
60306;SDS011;46155;52.364;6.580;2022-07-17T06:33:43;9.03;;;8.10;;
60306;SDS011;46155;52.364;6.580;2022-07-17T06:36:09;7.83;;;7.20;;
60306;SDS011;46155;52.364;6.580;2022-07-17T06:38:34;7.43;;;6.83;;
60306;SDS011;46155;52.364;6.580;2022-07-17T06:41:00;8.33;;;7.50;;
60306;SDS011;46155;52.364;6.580;2022-07-17T06:43:26;8.07;;;7.33;;
60306;SDS011;46155;52.364;6.580;2022-07-17T06:45:52;10.77;;;7.00;;
60306;SDS011;46155;52.364;6.580;2022-07-17T06:48:19;8.30;;;6.97;;
60306;SDS011;46155;52.364;6.580;2022-07-17T06:50:45;7.20;;;6.70;;
60306;SDS011;46155;52.364;6.580;2022-07-17T06:53:11;7.07;;;6.47;;
60306;SDS011;46155;52.364;6.580;2022-07-17T06:55:37;9.13;;;6.40;;
60306;SDS011;46155;52.364;6.580;2022-07-17T06:58:02;6.80;;;6.23;;
60306;SDS011;46155;52.364;6.580;2022-07-17T07:00:27;6.43;;;6.03;;
60306;SDS011;46155;52.364;6.580;2022-07-17T07:02:53;6.50;;;5.90;;
60306;SDS011;46155;52.364;6.580;2022-07-17T07:05:18;6.70;;;6.10;;
60306;SDS011;46155;52.364;6.580;2022-07-17T07:07:43;7.10;;;6.37;;
60306;SDS011;46155;52.364;6.580;2022-07-17T07:10:09;6.43;;;5.83;;
60306;SDS011;46155;52.364;6.580;2022-07-17T07:12:34;9.60;;;5.73;;
60306;SDS011;46155;52.364;6.580;2022-07-17T07:15:00;5.93;;;5.47;;
60306;SDS011;46155;52.364;6.580;2022-07-17T07:17:25;8.10;;;5.80;;
60306;SDS011;46155;52.364;6.580;2022-07-17T07:19:50;5.97;;;5.63;;
60306;SDS011;46155;52.364;6.580;2022-07-17T07:22:16;6.27;;;5.77;;
60306;SDS011;46155;52.364;6.580;2022-07-17T07:24:41;8.80;;;6.23;;
60306;SDS011;46155;52.364;6.580;2022-07-17T07:27:07;5.63;;;5.13;;
60306;SDS011;46155;52.364;6.580;2022-07-17T07:29:32;6.30;;;5.90;;
60306;SDS011;46155;52.364;6.580;2022-07-17T07:31:58;7.23;;;5.37;;
60306;SDS011;46155;52.364;6.580;2022-07-17T07:34:23;6.60;;;6.00;;
60306;SDS011;46155;52.364;6.580;2022-07-17T07:36:50;5.83;;;5.23;;
60306;SDS011;46155;52.364;6.580;2022-07-17T07:39:15;7.63;;;5.07;;
60306;SDS011;46155;52.364;6.580;2022-07-17T07:41:40;5.90;;;5.33;;
60306;SDS011;46155;52.364;6.580;2022-07-17T07:44:06;6.13;;;5.53;;
60306;SDS011;46155;52.364;6.580;2022-07-17T07:46:32;6.17;;;5.57;;
60306;SDS011;46155;52.364;6.580;2022-07-17T07:48:58;8.33;;;5.90;;
60306;SDS011;46155;52.364;6.580;2022-07-17T07:51:24;5.73;;;5.33;;
60306;SDS011;46155;52.364;6.580;2022-07-17T07:53:49;6.60;;;6.03;;
60306;SDS011;46155;52.364;6.580;2022-07-17T07:56:14;5.73;;;5.40;;
60306;SDS011;46155;52.364;6.580;2022-07-17T07:58:40;5.90;;;5.50;;
60306;SDS011;46155;52.364;6.580;2022-07-17T08:01:05;9.20;;;5.87;;
60306;SDS011;46155;52.364;6.580;2022-07-17T08:03:30;6.40;;;5.90;;
60306;SDS011;46155;52.364;6.580;2022-07-17T08:05:55;5.83;;;5.43;;
60306;SDS011;46155;52.364;6.580;2022-07-17T08:08:21;6.63;;;5.97;;
60306;SDS011;46155;52.364;6.580;2022-07-17T08:10:46;6.50;;;5.70;;
60306;SDS011;46155;52.364;6.580;2022-07-17T08:13:11;5.50;;;5.20;;
60306;SDS011;46155;52.364;6.580;2022-07-17T08:15:37;5.80;;;5.50;;
60306;SDS011;46155;52.364;6.580;2022-07-17T08:18:02;6.23;;;5.80;;
60306;SDS011;46155;52.364;6.580;2022-07-17T08:20:28;6.67;;;5.83;;
60306;SDS011;46155;52.364;6.580;2022-07-17T08:22:53;5.80;;;5.40;;
60306;SDS011;46155;52.364;6.580;2022-07-17T08:25:18;6.30;;;5.57;;
60306;SDS011;46155;52.364;6.580;2022-07-17T08:27:44;5.63;;;5.30;;
60306;SDS011;46155;52.364;6.580;2022-07-17T08:30:11;6.20;;;5.80;;
60306;SDS011;46155;52.364;6.580;2022-07-17T08:32:37;5.87;;;5.57;;
60306;SDS011;46155;52.364;6.580;2022-07-17T08:35:03;6.53;;;5.97;;
60306;SDS011;46155;52.364;6.580;2022-07-17T08:37:29;6.87;;;6.17;;
60306;SDS011;46155;52.364;6.580;2022-07-17T08:39:55;6.17;;;5.80;;
60306;SDS011;46155;52.364;6.580;2022-07-17T08:42:21;6.90;;;6.30;;
60306;SDS011;46155;52.364;6.580;2022-07-17T08:44:46;6.57;;;6.17;;
60306;SDS011;46155;52.364;6.580;2022-07-17T08:47:12;8.17;;;6.67;;
60306;SDS011;46155;52.364;6.580;2022-07-17T08:49:43;7.57;;;6.13;;
60306;SDS011;46155;52.364;6.580;2022-07-17T08:52:11;6.20;;;5.90;;
60306;SDS011;46155;52.364;6.580;2022-07-17T08:54:37;6.33;;;5.73;;
60306;SDS011;46155;52.364;6.580;2022-07-17T08:57:03;8.90;;;5.73;;
60306;SDS011;46155;52.364;6.580;2022-07-17T08:59:29;6.40;;;5.87;;
60306;SDS011;46155;52.364;6.580;2022-07-17T09:01:55;6.57;;;6.07;;
60306;SDS011;46155;52.364;6.580;2022-07-17T09:04:20;6.17;;;5.73;;
60306;SDS011;46155;52.364;6.580;2022-07-17T09:06:45;6.20;;;5.70;;
60306;SDS011;46155;52.364;6.580;2022-07-17T09:09:12;5.73;;;5.43;;
60306;SDS011;46155;52.364;6.580;2022-07-17T09:11:42;5.93;;;5.53;;
60306;SDS011;46155;52.364;6.580;2022-07-17T09:14:09;6.47;;;5.80;;
60306;SDS011;46155;52.364;6.580;2022-07-17T09:16:35;8.27;;;6.00;;
60306;SDS011;46155;52.364;6.580;2022-07-17T09:19:01;6.40;;;5.93;;
60306;SDS011;46155;52.364;6.580;2022-07-17T09:21:27;6.33;;;6.00;;
60306;SDS011;46155;52.364;6.580;2022-07-17T09:24:01;7.77;;;6.07;;
60306;SDS011;46155;52.364;6.580;2022-07-17T09:26:28;6.57;;;6.10;;
60306;SDS011;46155;52.364;6.580;2022-07-17T09:28:55;6.30;;;5.80;;
60306;SDS011;46155;52.364;6.580;2022-07-17T09:31:24;6.90;;;6.50;;
60306;SDS011;46155;52.364;6.580;2022-07-17T09:33:53;6.30;;;5.80;;
60306;SDS011;46155;52.364;6.580;2022-07-17T09:36:19;5.80;;;5.50;;
60306;SDS011;46155;52.364;6.580;2022-07-17T09:38:45;6.77;;;6.10;;
60306;SDS011;46155;52.364;6.580;2022-07-17T09:41:12;5.50;;;5.10;;
60306;SDS011;46155;52.364;6.580;2022-07-17T09:46:16;6.00;;;5.70;;
60306;SDS011;46155;52.364;6.580;2022-07-17T09:48:43;6.13;;;5.83;;
60306;SDS011;46155;52.364;6.580;2022-07-17T09:51:14;5.50;;;5.20;;
60306;SDS011;46155;52.364;6.580;2022-07-17T09:53:41;5.80;;;5.40;;
60306;SDS011;46155;52.364;6.580;2022-07-17T09:56:09;7.10;;;5.80;;
60306;SDS011;46155;52.364;6.580;2022-07-17T09:58:36;5.97;;;5.57;;
60306;SDS011;46155;52.364;6.580;2022-07-17T10:01:07;6.30;;;5.73;;
60306;SDS011;46155;52.364;6.580;2022-07-17T10:03:33;7.13;;;5.87;;
60306;SDS011;46155;52.364;6.580;2022-07-17T10:05:59;6.57;;;5.90;;
60306;SDS011;46155;52.364;6.580;2022-07-17T10:08:26;7.43;;;6.20;;
60306;SDS011;46155;52.364;6.580;2022-07-17T10:10:52;6.37;;;5.87;;
60306;SDS011;46155;52.364;6.580;2022-07-17T10:13:17;6.23;;;5.63;;
60306;SDS011;46155;52.364;6.580;2022-07-17T10:15:44;6.00;;;5.70;;
60306;SDS011;46155;52.364;6.580;2022-07-17T10:18:10;6.07;;;5.73;;
60306;SDS011;46155;52.364;6.580;2022-07-17T10:20:35;7.03;;;5.97;;
60306;SDS011;46155;52.364;6.580;2022-07-17T10:23:10;6.40;;;6.10;;
60306;SDS011;46155;52.364;6.580;2022-07-17T10:25:37;6.23;;;5.83;;
60306;SDS011;46155;52.364;6.580;2022-07-17T10:28:02;5.97;;;5.43;;
60306;SDS011;46155;52.364;6.580;2022-07-17T10:30:28;5.60;;;5.07;;
60306;SDS011;46155;52.364;6.580;2022-07-17T10:32:58;7.17;;;6.23;;
60306;SDS011;46155;52.364;6.580;2022-07-17T10:35:25;6.43;;;5.93;;
60306;SDS011;46155;52.364;6.580;2022-07-17T10:37:51;6.27;;;5.77;;
60306;SDS011;46155;52.364;6.580;2022-07-17T10:40:21;6.73;;;5.53;;
60306;SDS011;46155;52.364;6.580;2022-07-17T10:42:52;6.33;;;5.97;;
60306;SDS011;46155;52.364;6.580;2022-07-17T10:45:21;7.03;;;5.60;;
60306;SDS011;46155;52.364;6.580;2022-07-17T10:50:21;6.20;;;5.70;;
60306;SDS011;46155;52.364;6.580;2022-07-17T10:53:12;5.80;;;5.50;;
60306;SDS011;46155;52.364;6.580;2022-07-17T10:55:41;5.97;;;5.67;;
60306;SDS011;46155;52.364;6.580;2022-07-17T11:00:58;6.10;;;5.50;;
60306;SDS011;46155;52.364;6.580;2022-07-17T11:06:20;6.30;;;5.90;;
60306;SDS011;46155;52.364;6.580;2022-07-17T11:11:13;6.30;;;5.77;;
60306;SDS011;46155;52.364;6.580;2022-07-17T11:13:40;6.40;;;5.80;;
60306;SDS011;46155;52.364;6.580;2022-07-17T11:16:06;6.40;;;6.00;;
60306;SDS011;46155;52.364;6.580;2022-07-17T11:18:31;6.10;;;5.70;;
60306;SDS011;46155;52.364;6.580;2022-07-17T11:20:58;6.33;;;5.90;;
60306;SDS011;46155;52.364;6.580;2022-07-17T11:23:26;5.70;;;5.40;;
60306;SDS011;46155;52.364;6.580;2022-07-17T11:26:03;6.10;;;5.57;;
60306;SDS011;46155;52.364;6.580;2022-07-17T11:28:30;5.87;;;5.47;;
60306;SDS011;46155;52.364;6.580;2022-07-17T11:31:01;5.90;;;5.60;;
60306;SDS011;46155;52.364;6.580;2022-07-17T11:33:29;5.87;;;5.40;;
60306;SDS011;46155;52.364;6.580;2022-07-17T11:35:54;6.07;;;5.67;;
60306;SDS011;46155;52.364;6.580;2022-07-17T11:38:24;6.27;;;5.77;;
60306;SDS011;46155;52.364;6.580;2022-07-17T11:40:51;5.80;;;5.50;;
60306;SDS011;46155;52.364;6.580;2022-07-17T11:43:16;5.53;;;5.33;;
60306;SDS011;46155;52.364;6.580;2022-07-17T11:45:43;6.20;;;5.83;;
60306;SDS011;46155;52.364;6.580;2022-07-17T11:48:08;5.80;;;5.30;;
60306;SDS011;46155;52.364;6.580;2022-07-17T11:50:34;6.23;;;5.83;;
60306;SDS011;46155;52.364;6.580;2022-07-17T11:53:00;5.97;;;5.67;;
60306;SDS011;46155;52.364;6.580;2022-07-17T11:55:41;5.37;;;5.07;;
60306;SDS011;46155;52.364;6.580;2022-07-17T11:58:08;5.77;;;5.40;;
60306;SDS011;46155;52.364;6.580;2022-07-17T12:00:33;5.73;;;5.43;;
60306;SDS011;46155;52.364;6.580;2022-07-17T12:03:00;5.63;;;5.33;;
60306;SDS011;46155;52.364;6.580;2022-07-17T12:05:27;5.80;;;5.50;;
60306;SDS011;46155;52.364;6.580;2022-07-17T12:07:53;6.37;;;5.20;;
60306;SDS011;46155;52.364;6.580;2022-07-17T12:10:20;6.40;;;6.00;;
60306;SDS011;46155;52.364;6.580;2022-07-17T12:13:01;5.77;;;5.37;;
60306;SDS011;46155;52.364;6.580;2022-07-17T12:15:38;5.90;;;5.53;;
60306;SDS011;46155;52.364;6.580;2022-07-17T12:18:19;5.87;;;5.47;;
60306;SDS011;46155;52.364;6.580;2022-07-17T12:20:53;5.80;;;5.40;;
60306;SDS011;46155;52.364;6.580;2022-07-17T12:26:09;6.13;;;5.80;;
60306;SDS011;46155;52.364;6.580;2022-07-17T12:28:36;6.03;;;5.57;;
60306;SDS011;46155;52.364;6.580;2022-07-17T12:31:02;6.47;;;5.97;;
60306;SDS011;46155;52.364;6.580;2022-07-17T12:33:28;6.03;;;5.63;;
60306;SDS011;46155;52.364;6.580;2022-07-17T12:35:54;6.23;;;5.93;;
60306;SDS011;46155;52.364;6.580;2022-07-17T12:38:19;5.77;;;5.47;;
60306;SDS011;46155;52.364;6.580;2022-07-17T12:40:45;6.00;;;5.70;;
60306;SDS011;46155;52.364;6.580;2022-07-17T12:43:10;6.27;;;5.87;;
60306;SDS011;46155;52.364;6.580;2022-07-17T12:45:35;6.47;;;6.03;;
60306;SDS011;46155;52.364;6.580;2022-07-17T12:48:01;6.10;;;5.70;;
60306;SDS011;46155;52.364;6.580;2022-07-17T12:50:26;6.20;;;5.90;;
60306;SDS011;46155;52.364;6.580;2022-07-17T12:52:52;6.57;;;6.17;;
60306;SDS011;46155;52.364;6.580;2022-07-17T12:55:17;6.00;;;5.60;;
60306;SDS011;46155;52.364;6.580;2022-07-17T12:57:43;6.80;;;6.30;;
60306;SDS011;46155;52.364;6.580;2022-07-17T13:00:08;7.03;;;6.43;;
60306;SDS011;46155;52.364;6.580;2022-07-17T13:02:35;6.20;;;5.80;;
60306;SDS011;46155;52.364;6.580;2022-07-17T13:05:00;6.10;;;5.80;;
60306;SDS011;46155;52.364;6.580;2022-07-17T13:07:26;6.40;;;6.00;;
60306;SDS011;46155;52.364;6.580;2022-07-17T13:09:52;8.50;;;6.50;;
60306;SDS011;46155;52.364;6.580;2022-07-17T13:12:17;6.80;;;6.40;;
60306;SDS011;46155;52.364;6.580;2022-07-17T13:14:42;6.93;;;6.40;;
60306;SDS011;46155;52.364;6.580;2022-07-17T13:17:08;6.57;;;6.17;;
60306;SDS011;46155;52.364;6.580;2022-07-17T13:19:33;7.13;;;6.60;;
60306;SDS011;46155;52.364;6.580;2022-07-17T13:22:00;7.03;;;6.53;;
60306;SDS011;46155;52.364;6.580;2022-07-17T13:24:25;6.50;;;6.20;;
60306;SDS011;46155;52.364;6.580;2022-07-17T13:26:51;6.93;;;6.30;;
60306;SDS011;46155;52.364;6.580;2022-07-17T13:29:16;7.47;;;6.97;;
60306;SDS011;46155;52.364;6.580;2022-07-17T13:31:42;7.27;;;6.57;;
60306;SDS011;46155;52.364;6.580;2022-07-17T13:34:07;6.60;;;6.20;;
60306;SDS011;46155;52.364;6.580;2022-07-17T13:36:33;6.90;;;6.50;;
60306;SDS011;46155;52.364;6.580;2022-07-17T13:38:58;7.20;;;6.50;;
60306;SDS011;46155;52.364;6.580;2022-07-17T13:41:24;9.20;;;7.00;;
60306;SDS011;46155;52.364;6.580;2022-07-17T13:43:49;6.87;;;6.27;;
60306;SDS011;46155;52.364;6.580;2022-07-17T13:46:14;7.13;;;6.73;;
60306;SDS011;46155;52.364;6.580;2022-07-17T13:48:40;7.00;;;6.40;;
60306;SDS011;46155;52.364;6.580;2022-07-17T13:51:05;6.77;;;6.30;;
60306;SDS011;46155;52.364;6.580;2022-07-17T13:53:31;6.27;;;5.77;;
60306;SDS011;46155;52.364;6.580;2022-07-17T13:55:58;7.17;;;6.67;;
60306;SDS011;46155;52.364;6.580;2022-07-17T13:58:23;6.43;;;6.00;;
60306;SDS011;46155;52.364;6.580;2022-07-17T14:00:48;7.20;;;6.70;;
60306;SDS011;46155;52.364;6.580;2022-07-17T14:03:14;7.30;;;6.60;;
60306;SDS011;46155;52.364;6.580;2022-07-17T14:05:39;7.33;;;6.77;;
60306;SDS011;46155;52.364;6.580;2022-07-17T14:08:05;6.80;;;6.30;;
60306;SDS011;46155;52.364;6.580;2022-07-17T14:10:30;6.80;;;6.30;;
60306;SDS011;46155;52.364;6.580;2022-07-17T14:12:55;6.77;;;6.27;;
60306;SDS011;46155;52.364;6.580;2022-07-17T14:15:20;14.13;;;6.60;;
60306;SDS011;46155;52.364;6.580;2022-07-17T14:17:46;6.30;;;6.00;;
60306;SDS011;46155;52.364;6.580;2022-07-17T14:20:12;6.60;;;6.20;;
60306;SDS011;46155;52.364;6.580;2022-07-17T14:22:37;6.90;;;6.40;;
60306;SDS011;46155;52.364;6.580;2022-07-17T14:25:02;6.50;;;6.10;;
60306;SDS011;46155;52.364;6.580;2022-07-17T14:27:28;6.07;;;5.67;;
60306;SDS011;46155;52.364;6.580;2022-07-17T14:29:53;7.20;;;6.60;;
60306;SDS011;46155;52.364;6.580;2022-07-17T14:32:18;7.13;;;6.53;;
60306;SDS011;46155;52.364;6.580;2022-07-17T14:34:44;7.17;;;6.67;;
60306;SDS011;46155;52.364;6.580;2022-07-17T14:37:09;7.37;;;6.77;;
60306;SDS011;46155;52.364;6.580;2022-07-17T14:39:34;6.00;;;5.67;;
60306;SDS011;46155;52.364;6.580;2022-07-17T14:42:00;7.30;;;6.80;;
60306;SDS011;46155;52.364;6.580;2022-07-17T14:44:26;6.80;;;6.30;;
60306;SDS011;46155;52.364;6.580;2022-07-17T14:46:52;6.87;;;6.37;;
60306;SDS011;46155;52.364;6.580;2022-07-17T14:49:18;7.23;;;6.73;;
60306;SDS011;46155;52.364;6.580;2022-07-17T14:51:43;8.60;;;7.80;;
60306;SDS011;46155;52.364;6.580;2022-07-17T14:54:09;6.73;;;6.33;;
60306;SDS011;46155;52.364;6.580;2022-07-17T14:56:35;6.77;;;6.27;;
60306;SDS011;46155;52.364;6.580;2022-07-17T14:59:00;7.03;;;6.43;;
60306;SDS011;46155;52.364;6.580;2022-07-17T15:01:25;7.57;;;6.87;;
60306;SDS011;46155;52.364;6.580;2022-07-17T15:03:51;7.23;;;6.60;;
60306;SDS011;46155;52.364;6.580;2022-07-17T15:06:16;7.37;;;6.77;;
60306;SDS011;46155;52.364;6.580;2022-07-17T15:08:41;7.10;;;6.57;;
60306;SDS011;46155;52.364;6.580;2022-07-17T15:11:07;7.10;;;6.50;;
60306;SDS011;46155;52.364;6.580;2022-07-17T15:13:32;7.00;;;6.40;;
60306;SDS011;46155;52.364;6.580;2022-07-17T15:15:57;7.93;;;7.17;;
60306;SDS011;46155;52.364;6.580;2022-07-17T15:18:23;7.30;;;6.80;;
60306;SDS011;46155;52.364;6.580;2022-07-17T15:20:48;7.10;;;6.60;;
60306;SDS011;46155;52.364;6.580;2022-07-17T15:23:13;6.80;;;6.30;;
60306;SDS011;46155;52.364;6.580;2022-07-17T15:25:38;6.83;;;6.33;;
60306;SDS011;46155;52.364;6.580;2022-07-17T15:28:04;6.67;;;6.17;;
60306;SDS011;46155;52.364;6.580;2022-07-17T15:30:29;7.13;;;6.63;;
60306;SDS011;46155;52.364;6.580;2022-07-17T15:32:55;7.03;;;6.57;;
60306;SDS011;46155;52.364;6.580;2022-07-17T15:35:20;7.93;;;7.33;;
60306;SDS011;46155;52.364;6.580;2022-07-17T15:37:46;7.77;;;6.90;;
60306;SDS011;46155;52.364;6.580;2022-07-17T15:40:11;7.80;;;7.10;;
60306;SDS011;46155;52.364;6.580;2022-07-17T15:42:36;7.37;;;6.73;;
60306;SDS011;46155;52.364;6.580;2022-07-17T15:45:02;7.30;;;6.70;;
60306;SDS011;46155;52.364;6.580;2022-07-17T15:47:28;7.23;;;6.63;;
60306;SDS011;46155;52.364;6.580;2022-07-17T15:49:54;7.33;;;6.83;;
60306;SDS011;46155;52.364;6.580;2022-07-17T15:52:20;7.60;;;6.73;;
60306;SDS011;46155;52.364;6.580;2022-07-17T15:54:45;7.17;;;6.57;;
60306;SDS011;46155;52.364;6.580;2022-07-17T15:57:10;13.17;;;7.20;;
60306;SDS011;46155;52.364;6.580;2022-07-17T15:59:35;7.47;;;6.97;;
60306;SDS011;46155;52.364;6.580;2022-07-17T16:02:02;7.23;;;6.77;;
60306;SDS011;46155;52.364;6.580;2022-07-17T16:04:27;7.07;;;6.63;;
60306;SDS011;46155;52.364;6.580;2022-07-17T16:06:52;7.03;;;6.63;;
60306;SDS011;46155;52.364;6.580;2022-07-17T16:09:18;7.43;;;6.83;;
60306;SDS011;46155;52.364;6.580;2022-07-17T16:11:43;8.20;;;7.53;;
60306;SDS011;46155;52.364;6.580;2022-07-17T16:14:09;8.13;;;7.50;;
60306;SDS011;46155;52.364;6.580;2022-07-17T16:16:34;8.60;;;7.80;;
60306;SDS011;46155;52.364;6.580;2022-07-17T16:19:00;7.77;;;7.23;;
60306;SDS011;46155;52.364;6.580;2022-07-17T16:21:25;8.40;;;7.60;;
60306;SDS011;46155;52.364;6.580;2022-07-17T16:23:51;7.60;;;7.00;;
60306;SDS011;46155;52.364;6.580;2022-07-17T16:26:17;8.03;;;7.43;;
60306;SDS011;46155;52.364;6.580;2022-07-17T16:28:43;8.70;;;7.87;;
60306;SDS011;46155;52.364;6.580;2022-07-17T16:31:08;9.37;;;7.30;;
60306;SDS011;46155;52.364;6.580;2022-07-17T16:33:34;7.20;;;6.60;;
60306;SDS011;46155;52.364;6.580;2022-07-17T16:35:59;9.43;;;7.03;;
60306;SDS011;46155;52.364;6.580;2022-07-17T16:38:24;8.47;;;7.77;;
60306;SDS011;46155;52.364;6.580;2022-07-17T16:40:50;8.10;;;7.27;;
60306;SDS011;46155;52.364;6.580;2022-07-17T16:43:15;8.47;;;7.77;;
60306;SDS011;46155;52.364;6.580;2022-07-17T16:45:41;8.20;;;7.50;;
60306;SDS011;46155;52.364;6.580;2022-07-17T16:48:06;8.13;;;7.43;;
60306;SDS011;46155;52.364;6.580;2022-07-17T16:50:33;8.57;;;7.80;;
60306;SDS011;46155;52.364;6.580;2022-07-17T16:52:58;9.03;;;7.57;;
60306;SDS011;46155;52.364;6.580;2022-07-17T16:55:24;8.37;;;7.47;;
60306;SDS011;46155;52.364;6.580;2022-07-17T16:57:49;8.23;;;7.53;;
60306;SDS011;46155;52.364;6.580;2022-07-17T17:00:15;7.90;;;7.20;;
60306;SDS011;46155;52.364;6.580;2022-07-17T17:02:40;7.73;;;7.13;;
60306;SDS011;46155;52.364;6.580;2022-07-17T17:05:06;8.30;;;7.50;;
60306;SDS011;46155;52.364;6.580;2022-07-17T17:07:34;7.73;;;7.07;;
60306;SDS011;46155;52.364;6.580;2022-07-17T17:10:01;7.63;;;6.93;;
60306;SDS011;46155;52.364;6.580;2022-07-17T17:12:31;7.73;;;6.93;;
60306;SDS011;46155;52.364;6.580;2022-07-17T17:14:57;8.10;;;7.47;;
60306;SDS011;46155;52.364;6.580;2022-07-17T17:17:23;8.03;;;7.30;;
60306;SDS011;46155;52.364;6.580;2022-07-17T17:19:48;7.07;;;6.47;;
60306;SDS011;46155;52.364;6.580;2022-07-17T17:22:13;8.63;;;7.47;;
60306;SDS011;46155;52.364;6.580;2022-07-17T17:24:39;7.67;;;7.07;;
60306;SDS011;46155;52.364;6.580;2022-07-17T17:27:04;7.47;;;6.90;;
60306;SDS011;46155;52.364;6.580;2022-07-17T17:29:30;7.97;;;7.23;;
60306;SDS011;46155;52.364;6.580;2022-07-17T17:31:55;7.13;;;6.53;;
60306;SDS011;46155;52.364;6.580;2022-07-17T17:34:20;6.90;;;6.40;;
60306;SDS011;46155;52.364;6.580;2022-07-17T17:36:46;7.40;;;6.70;;
60306;SDS011;46155;52.364;6.580;2022-07-17T17:39:11;7.83;;;7.13;;
60306;SDS011;46155;52.364;6.580;2022-07-17T17:41:36;7.30;;;6.70;;
60306;SDS011;46155;52.364;6.580;2022-07-17T17:44:02;8.07;;;7.17;;
60306;SDS011;46155;52.364;6.580;2022-07-17T17:46:28;12.33;;;7.27;;
60306;SDS011;46155;52.364;6.580;2022-07-17T17:48:53;10.03;;;7.37;;
60306;SDS011;46155;52.364;6.580;2022-07-17T17:51:19;7.50;;;6.80;;
60306;SDS011;46155;52.364;6.580;2022-07-17T17:53:44;7.03;;;6.43;;
60306;SDS011;46155;52.364;6.580;2022-07-17T17:56:09;7.50;;;6.77;;
60306;SDS011;46155;52.364;6.580;2022-07-17T17:58:35;8.73;;;6.80;;